Time;durP1;ratioP1;P1;durP2;ratioP2;P2;SDS_P1;SDS_P2;PMS_P1;PMS_P2;Temp;Humidity;BMP_temperature;BMP_pressure;BME280_temperature;BME280_humidity;BME280_pressure;Samples;Min_cycle;Max_cycle;Signal;HPM_P1;HPM_P2
2020/12/15 00:01:54;;;;;;;2.30;1.48;;;;;;;8.93;81.74;99362.03;5075548;28;20049;-75
2020/12/15 00:04:21;;;;;;;2.75;2.00;;;;;;;8.96;81.50;99369.81;5075164;28;20438;-73
2020/12/15 00:06:47;;;;;;;2.58;1.50;;;;;;;8.90;82.34;99359.59;5076299;28;20048;-75
2020/12/15 00:09:14;;;;;;;2.30;1.30;;;;;;;8.82;82.76;99356.56;5075095;28;20101;-75
2020/12/15 00:11:41;;;;;;;3.47;1.58;;;;;;;8.81;83.36;99360.19;5075844;28;20052;-75
2020/12/15 00:14:08;;;;;;;4.70;1.83;;;;;;;8.76;82.82;99349.03;5075938;28;20045;-76
2020/12/15 00:16:34;;;;;;;3.28;1.48;;;;;;;8.83;82.57;99360.97;5076121;28;20056;-75
2020/12/15 00:19:00;;;;;;;3.20;1.65;;;;;;;8.75;82.81;99353.47;5075712;28;20102;-76
2020/12/15 00:21:28;;;;;;;2.00;1.20;;;;;;;8.74;83.20;99359.75;5076168;28;20052;-74
2020/12/15 00:23:55;;;;;;;3.17;1.70;;;;;;;8.79;82.29;99349.66;5075970;28;20120;-73
2020/12/15 00:26:23;;;;;;;2.85;1.67;;;;;;;8.71;82.60;99343.97;5075978;28;20045;-75
2020/12/15 00:28:50;;;;;;;2.63;1.65;;;;;;;8.71;83.42;99346.63;5075588;28;20102;-76
2020/12/15 00:31:18;;;;;;;2.70;1.65;;;;;;;8.68;82.43;99346.84;5075694;28;20052;-74
2020/12/15 00:33:45;;;;;;;4.05;2.00;;;;;;;8.70;83.33;99347.59;5058096;28;20422;-75
2020/12/15 00:36:19;;;;;;;3.25;1.88;;;;;;;8.60;82.78;99327.91;5074437;28;20503;-76
2020/12/15 00:38:46;;;;;;;3.55;1.85;;;;;;;8.73;82.69;99350.06;5074381;28;20461;-76
2020/12/15 00:41:12;;;;;;;6.28;2.08;;;;;;;8.64;81.78;99334.69;5074657;28;20049;-76
2020/12/15 00:43:39;;;;;;;3.13;1.88;;;;;;;8.76;82.18;99343.69;5074736;28;20110;-74
2020/12/15 00:46:05;;;;;;;4.22;1.83;;;;;;;8.72;82.02;99337.69;5074125;28;20505;-75
2020/12/15 00:48:32;;;;;;;2.72;1.63;;;;;;;8.73;81.85;99335.91;5075617;28;20057;-76
2020/12/15 00:50:58;;;;;;;3.63;2.10;;;;;;;8.75;82.31;99339.31;5074015;28;20047;-75
2020/12/15 00:53:24;;;;;;;6.00;2.28;;;;;;;8.69;83.45;99337.91;5075296;28;20055;-75
2020/12/15 00:55:51;;;;;;;2.97;1.73;;;;;;;8.62;82.08;99320.66;5075048;28;20088;-75
2020/12/15 00:58:18;;;;;;;5.20;1.92;;;;;;;8.67;83.07;99329.19;5073920;28;20106;-75
2020/12/15 01:00:44;;;;;;;2.97;1.90;;;;;;;8.69;82.60;99321.94;5074931;28;20057;-76
2020/12/15 01:03:10;;;;;;;2.72;1.70;;;;;;;8.66;82.53;99328.31;5074301;28;20080;-76
2020/12/15 01:05:36;;;;;;;3.60;1.95;;;;;;;8.51;82.45;99306.25;5075024;28;20059;-75
2020/12/15 01:08:03;;;;;;;5.95;2.10;;;;;;;8.68;81.70;99322.91;5075046;28;20139;-75
2020/12/15 01:10:30;;;;;;;4.80;2.08;;;;;;;8.67;81.47;99340.66;5073733;28;20082;-76
2020/12/15 01:12:56;;;;;;;2.85;1.63;;;;;;;8.71;81.36;99332.50;5075349;28;20052;-76
2020/12/15 01:15:22;;;;;;;3.75;1.92;;;;;;;8.72;81.53;99326.22;5074105;28;20056;-75
2020/12/15 01:17:48;;;;;;;4.22;1.92;;;;;;;8.74;80.53;99325.16;5075230;28;20053;-75
2020/12/15 01:20:15;;;;;;;3.75;2.00;;;;;;;8.83;81.12;99329.03;5073952;28;20131;-75
2020/12/15 01:22:41;;;;;;;3.80;1.98;;;;;;;8.85;80.19;99320.91;5075181;28;20110;-77
2020/12/15 01:25:07;;;;;;;4.18;1.98;;;;;;;8.85;80.47;99326.25;5057549;28;20048;-76
2020/12/15 01:27:34;;;;;;;4.32;2.03;;;;;;;8.81;81.05;99325.59;5073868;28;20063;-75
2020/12/15 01:30:00;;;;;;;3.58;2.05;;;;;;;8.88;80.49;99332.22;5073884;28;20052;-75
2020/12/15 01:32:26;;;;;;;2.97;1.90;;;;;;;8.91;79.53;99360.44;5074976;28;20052;-76
2020/12/15 01:34:52;;;;;;;3.90;1.80;;;;;;;8.88;79.85;99350.84;5074140;28;20052;-76
2020/12/15 01:37:18;;;;;;;5.22;1.90;;;;;;;8.91;79.80;99357.75;5075064;28;20052;-78
2020/12/15 01:39:45;;;;;;;3.03;1.65;;;;;;;8.77;81.19;99334.75;5074032;28;20106;-75
2020/12/15 01:42:11;;;;;;;4.00;2.10;;;;;;;8.83;80.73;99353.81;5074571;28;20444;-74
2020/12/15 01:44:38;;;;;;;4.22;2.17;;;;;;;8.80;80.61;99372.66;5075024;28;20049;-75
2020/12/15 01:47:12;;;;;;;3.15;1.90;;;;;;;8.76;80.84;99364.97;5073867;28;20440;-75
2020/12/15 01:49:38;;;;;;;4.40;2.22;;;;;;;8.72;81.49;99363.47;5074673;28;20049;-75
2020/12/15 01:52:05;;;;;;;4.47;2.10;;;;;;;8.76;80.34;99371.13;5074472;28;20045;-75
2020/12/15 01:54:31;;;;;;;3.45;2.17;;;;;;;8.79;80.14;99386.91;5074142;28;20045;-75
2020/12/15 01:56:57;;;;;;;5.75;2.50;;;;;;;8.77;80.53;99386.13;5078367;28;20073;-76
2020/12/15 01:59:24;;;;;;;3.78;2.40;;;;;;;8.78;81.14;99384.34;5078438;28;20060;-74
2020/12/15 02:01:50;;;;;;;5.82;2.35;;;;;;;8.85;80.25;99382.13;5077519;28;20118;-76
2020/12/15 02:04:16;;;;;;;5.80;2.25;;;;;;;8.87;80.75;99378.41;5077253;28;20500;-74
2020/12/15 02:06:48;;;;;;;3.95;2.25;;;;;;;8.85;81.03;99368.81;5078288;28;20376;-74
2020/12/15 02:09:16;;;;;;;4.85;2.28;;;;;;;8.71;81.41;99357.28;5078544;28;20060;-76
2020/12/15 02:11:47;;;;;;;2.85;2.00;;;;;;;8.83;80.56;99383.06;5077741;28;20057;-75
2020/12/15 02:14:14;;;;;;;4.45;2.53;;;;;;;8.85;81.10;99379.47;5078519;28;20075;-74
2020/12/15 02:16:41;;;;;;;4.88;2.25;;;;;;;8.72;80.25;99358.16;5078203;28;20102;-75
2020/12/15 02:19:15;;;;;;;5.05;2.40;;;;;;;8.87;80.38;99377.56;5077991;28;20057;-76
2020/12/15 02:22:07;;;;;;;4.38;2.47;;;;;;;8.87;80.90;99375.75;5078017;28;20079;-76
2020/12/15 02:24:33;;;;;;;4.78;2.80;;;;;;;8.86;81.35;99381.16;5075657;28;20110;-74
2020/12/15 02:27:00;;;;;;;3.33;2.20;;;;;;;8.92;80.50;99386.06;5077883;28;20143;-75
2020/12/15 02:29:26;;;;;;;3.38;1.95;;;;;;;8.89;81.10;99388.97;5077968;28;20404;-75
2020/12/15 02:31:52;;;;;;;5.10;2.28;;;;;;;8.84;80.99;99381.28;5077720;28;20051;-74
2020/12/15 02:34:18;;;;;;;3.88;2.38;;;;;;;8.85;81.03;99371.47;5077099;28;20342;-75
2020/12/15 02:36:44;;;;;;;4.72;2.08;;;;;;;8.94;81.04;99376.19;5077874;28;20110;-75
2020/12/15 02:39:15;;;;;;;4.50;2.42;;;;;;;8.95;81.55;99365.44;5077897;28;20056;-73
2020/12/15 02:41:56;;;;;;;4.40;2.30;;;;;;;8.88;81.51;99350.84;5077421;28;20135;-74
2020/12/15 02:44:22;;;;;;;3.95;2.45;;;;;;;8.94;80.67;99353.09;5077885;28;20059;-74
2020/12/15 02:46:48;;;;;;;3.17;2.00;;;;;;;8.90;81.68;99356.94;5077576;28;20059;-75
2020/12/15 02:49:15;;;;;;;5.90;2.60;;;;;;;8.88;81.74;99365.97;5076624;28;20099;-74
2020/12/15 02:51:41;;;;;;;4.63;2.55;;;;;;;8.78;82.37;99350.59;5077682;28;20354;-75
2020/12/15 02:54:07;;;;;;;4.80;2.30;;;;;;;8.86;82.21;99365.19;5077614;28;20056;-74
2020/12/15 02:56:33;;;;;;;3.20;2.70;;;;;;;8.80;82.13;99354.03;5077359;28;20052;-75
2020/12/15 02:58:59;;;;;;;4.30;2.53;;;;;;;8.87;82.21;99357.13;5077646;28;20048;-75
2020/12/15 03:01:25;;;;;;;4.10;2.50;;;;;;;8.91;82.57;99373.72;5059572;28;20430;-73
2020/12/15 03:03:51;;;;;;;4.93;2.30;;;;;;;8.94;82.63;99365.56;5077555;28;20070;-75
2020/12/15 03:06:17;;;;;;;5.47;2.58;;;;;;;8.90;82.18;99358.72;5076942;28;20149;-75
2020/12/15 03:08:44;;;;;;;4.15;2.53;;;;;;;8.96;82.54;99366.28;5077320;28;20088;-74
2020/12/15 03:11:10;;;;;;;4.63;2.17;;;;;;;8.94;82.60;99370.88;5076982;28;20057;-74
2020/12/15 03:13:36;;;;;;;6.18;2.20;;;;;;;8.92;82.96;99365.66;5077042;28;20060;-74
2020/12/15 03:16:02;;;;;;;6.00;2.97;;;;;;;8.86;83.13;99351.88;5077322;28;20053;-75
2020/12/15 03:18:28;;;;;;;3.42;2.38;;;;;;;8.80;82.89;99358.47;5059592;28;20056;-74
2020/12/15 03:20:55;;;;;;;4.25;3.03;;;;;;;8.82;83.32;99357.44;5059587;28;20059;-74
2020/12/15 03:23:22;;;;;;;4.63;2.55;;;;;;;8.83;83.83;99361.78;5077077;28;20052;-76
2020/12/15 03:25:52;;;;;;;3.33;2.47;;;;;;;8.81;84.21;99368.16;5076846;28;20350;-74
2020/12/15 03:28:20;;;;;;;2.70;1.70;;;;;;;8.73;84.08;99362.50;5076883;28;20049;-73
2020/12/15 03:30:47;;;;;;;3.15;2.08;;;;;;;8.74;84.31;99370.41;5076762;28;20056;-75
2020/12/15 03:33:13;;;;;;;3.53;2.50;;;;;;;8.66;84.40;99375.38;5076543;28;20048;-75
2020/12/15 03:35:39;;;;;;;4.90;2.60;;;;;;;8.63;84.68;99373.78;5075662;28;20048;-74
2020/12/15 03:38:06;;;;;;;5.00;2.70;;;;;;;8.49;84.46;99348.03;5076741;28;20056;-76
2020/12/15 03:40:32;;;;;;;5.72;2.80;;;;;;;8.65;84.64;99376.31;5076566;28;20059;-74
2020/12/15 03:42:58;;;;;;;5.25;2.47;;;;;;;8.69;84.50;99381.34;5076854;28;20064;-75
2020/12/15 03:45:25;;;;;;;3.17;2.63;;;;;;;8.72;84.13;99380.25;5076395;28;20049;-75
2020/12/15 03:47:51;;;;;;;3.78;2.50;;;;;;;8.72;84.58;99390.91;5076656;28;20098;-74
2020/12/15 03:50:17;;;;;;;5.07;2.40;;;;;;;8.71;84.57;99378.56;5076691;28;20084;-75
2020/12/15 03:52:43;;;;;;;3.33;2.55;;;;;;;8.72;84.77;99390.91;5075475;28;20110;-75
2020/12/15 03:55:09;;;;;;;4.82;2.58;;;;;;;8.75;84.40;99393.38;5076286;28;20056;-75
2020/12/15 03:57:35;;;;;;;3.15;2.30;;;;;;;8.69;84.83;99393.78;5076115;28;20048;-75
2020/12/15 04:00:04;;;;;;;3.25;2.72;;;;;;;8.63;85.85;99391.53;5058707;28;20063;-74
2020/12/15 04:02:30;;;;;;;5.18;2.45;;;;;;;8.58;86.98;99393.63;5076242;28;20056;-76
2020/12/15 04:04:56;;;;;;;3.88;2.50;;;;;;;8.52;87.17;99385.13;5074970;28;20052;-75
2020/12/15 04:07:22;;;;;;;5.35;2.58;;;;;;;8.46;87.58;99384.59;5076218;28;20051;-75
2020/12/15 04:09:49;;;;;;;3.70;2.78;;;;;;;8.50;87.69;99388.78;5076297;28;20082;-75
2020/12/15 04:12:15;;;;;;;5.18;2.80;;;;;;;8.51;87.86;99391.34;5074705;28;20045;-75
2020/12/15 04:14:42;;;;;;;2.95;2.28;;;;;;;8.43;88.57;99385.66;5076031;28;20049;-76
2020/12/15 04:17:11;;;;;;;3.38;2.75;;;;;;;8.45;89.52;99399.72;5076084;28;20056;-74
2020/12/15 04:19:38;;;;;;;4.95;2.80;;;;;;;8.33;90.04;99401.34;5074991;28;20055;-75
2020/12/15 04:22:05;;;;;;;3.75;2.80;;;;;;;8.30;90.33;99396.25;5076062;28;20049;-73
2020/12/15 04:24:31;;;;;;;5.75;3.20;;;;;;;8.34;90.31;99408.38;5075592;28;20048;-75
2020/12/15 04:26:58;;;;;;;5.85;2.67;;;;;;;8.26;90.93;99390.28;5075499;28;20056;-77
2020/12/15 04:29:25;;;;;;;4.47;3.17;;;;;;;8.24;91.29;99396.63;5075649;28;20067;-74
2020/12/15 04:31:51;;;;;;;4.57;3.03;;;;;;;8.21;91.79;99407.44;5074480;28;20053;-75
2020/12/15 04:34:18;;;;;;;6.00;3.13;;;;;;;8.26;91.82;99405.34;5075945;28;20056;-74
2020/12/15 04:36:44;;;;;;;5.53;3.13;;;;;;;8.18;92.24;99411.19;5075839;28;20139;-75
2020/12/15 04:39:11;;;;;;;4.53;2.95;;;;;;;8.15;92.86;99408.69;5074580;28;20053;-74
2020/12/15 04:41:38;;;;;;;5.05;3.38;;;;;;;8.18;92.63;99413.84;5075333;28;20131;-74
2020/12/15 04:44:05;;;;;;;3.95;3.30;;;;;;;8.15;92.25;99412.22;5075263;28;20426;-73
2020/12/15 04:46:36;;;;;;;4.10;2.97;;;;;;;8.14;92.31;99418.50;5075684;28;20053;-76
2020/12/15 04:49:05;;;;;;;3.97;3.38;;;;;;;8.15;93.17;99425.50;5075470;28;20053;-74
2020/12/15 04:52:04;;;;;;;4.20;3.13;;;;;;;8.18;93.24;99418.28;5075253;28;20369;-74
2020/12/15 04:54:34;;;;;;;3.70;3.03;;;;;;;8.08;93.01;99399.41;5075209;28;20362;-75
2020/12/15 04:57:03;;;;;;;4.43;3.17;;;;;;;8.14;93.23;99414.97;5075475;28;20408;-74
2020/12/15 04:59:34;;;;;;;4.70;2.80;;;;;;;8.14;93.17;99418.50;5074228;28;20125;-74
2020/12/15 05:02:04;;;;;;;5.18;3.13;;;;;;;8.13;93.22;99416.75;5075288;28;20123;-73
2020/12/15 05:04:42;;;;;;;5.73;2.83;;;;;;;8.12;93.79;99424.84;5074511;28;20452;-73
2020/12/15 05:07:09;;;;;;;3.95;2.90;;;;;;;8.04;93.98;99419.13;5075272;28;20434;-76
2020/12/15 05:09:37;;;;;;;6.25;2.92;;;;;;;8.04;93.90;99414.69;5075442;28;20436;-74
2020/12/15 05:12:04;;;;;;;4.68;2.58;;;;;;;8.11;94.13;99428.44;5075137;28;20056;-75
2020/12/15 05:14:30;;;;;;;3.65;2.63;;;;;;;8.11;94.30;99429.31;5075065;28;20110;-74
2020/12/15 05:16:56;;;;;;;3.90;2.75;;;;;;;8.12;93.95;99431.00;5075136;28;20057;-74
2020/12/15 05:19:22;;;;;;;3.95;2.97;;;;;;;8.08;94.32;99418.00;5057321;28;20055;-75
2020/12/15 05:21:57;;;;;;;3.88;3.15;;;;;;;8.16;94.08;99426.34;5075135;28;20049;-74
2020/12/15 05:24:27;;;;;;;4.63;2.90;;;;;;;8.16;94.21;99426.34;5073834;28;20487;-75
2020/12/15 05:26:58;;;;;;;2.58;2.38;;;;;;;8.23;93.75;99435.63;5075245;28;20055;-75
2020/12/15 05:29:24;;;;;;;2.95;2.60;;;;;;;8.23;93.96;99432.97;5074915;28;20056;-74
2020/12/15 05:31:52;;;;;;;4.72;2.67;;;;;;;8.27;93.88;99437.16;5078787;28;20119;-74
2020/12/15 05:34:26;;;;;;;5.90;3.00;;;;;;;8.20;94.56;99433.19;5079794;28;20393;-74
2020/12/15 05:36:53;;;;;;;3.17;2.33;;;;;;;8.19;95.19;99435.94;5079800;28;20055;-74
2020/12/15 05:39:20;;;;;;;4.20;2.53;;;;;;;8.14;94.96;99425.59;5078933;28;20056;-75
2020/12/15 05:41:50;;;;;;;3.42;2.00;;;;;;;8.26;94.50;99437.25;5077855;28;20372;-74
2020/12/15 05:44:28;;;;;;;5.72;2.50;;;;;;;8.16;94.92;99431.66;5079118;28;20106;-74
2020/12/15 05:47:03;;;;;;;5.38;2.50;;;;;;;8.13;95.37;99434.53;5078865;28;20354;-75
2020/12/15 05:49:32;;;;;;;3.50;2.28;;;;;;;8.16;95.01;99434.31;5078986;28;20048;-75
2020/12/15 05:51:59;;;;;;;6.22;2.42;;;;;;;8.16;94.91;99429.00;5078661;28;20430;-74
2020/12/15 05:54:27;;;;;;;5.45;2.40;;;;;;;8.25;95.12;99447.06;5077572;28;20110;-75
2020/12/15 05:57:01;;;;;;;3.03;2.17;;;;;;;8.24;95.24;99440.00;5078864;28;20058;-71
2020/12/15 05:59:28;;;;;;;2.20;1.98;;;;;;;8.30;95.20;99449.41;5082481;28;20052;-71
2020/12/15 06:02:02;;;;;;;5.97;2.60;;;;;;;8.28;95.25;99449.50;5078952;28;20504;-74
2020/12/15 06:04:28;;;;;;;4.22;2.10;;;;;;;8.28;95.05;99446.84;5083014;28;20098;-73
2020/12/15 06:06:54;;;;;;;2.97;1.95;;;;;;;8.24;95.70;99449.81;5084679;28;20056;-72
2020/12/15 06:09:20;;;;;;;4.07;2.20;;;;;;;8.23;95.56;99438.28;5084201;28;20393;-71
2020/12/15 06:11:47;;;;;;;2.30;1.80;;;;;;;8.22;95.17;99431.28;5082023;28;20135;-72
2020/12/15 06:14:14;;;;;;;3.65;2.10;;;;;;;8.22;95.63;99433.09;5086100;28;20504;-77
2020/12/15 06:16:41;;;;;;;2.13;1.92;;;;;;;8.21;95.53;99434.88;5089659;28;20049;-78
2020/12/15 06:19:09;;;;;;;2.20;1.70;;;;;;;8.23;95.64;99427.66;5082556;28;20048;-75
2020/12/15 06:21:46;;;;;;;2.53;1.73;;;;;;;8.28;94.96;99446.84;5078504;28;20107;-78
2020/12/15 06:24:30;;;;;;;4.82;1.60;;;;;;;8.24;95.32;99436.50;5079153;28;20048;-78
2020/12/15 06:26:59;;;;;;;3.38;1.50;;;;;;;8.26;95.59;99448.75;5079281;28;20064;-74
2020/12/15 06:29:44;;;;;;;3.15;1.73;;;;;;;8.28;95.32;99448.63;5078161;28;20442;-78
2020/12/15 06:32:17;;;;;;;4.97;1.52;;;;;;;8.26;95.43;99447.88;5078229;28;20045;-75
2020/12/15 06:34:46;;;;;;;4.05;1.35;;;;;;;8.25;95.93;99449.72;5077808;28;20056;-75
2020/12/15 06:37:15;;;;;;;2.78;1.58;;;;;;;8.27;95.96;99444.28;5078170;28;20048;-75
2020/12/15 06:39:53;;;;;;;3.45;1.35;;;;;;;8.25;95.91;99447.06;5076649;28;20049;-71
2020/12/15 06:42:19;;;;;;;1.38;1.10;;;;;;;8.25;95.47;99447.06;5076840;28;20082;-74
2020/12/15 06:44:45;;;;;;;2.53;1.20;;;;;;;8.26;95.53;99453.22;5077905;28;20094;-75
2020/12/15 06:47:12;;;;;;;4.95;1.17;;;;;;;8.28;95.57;99444.19;5078039;28;20048;-78
2020/12/15 06:49:38;;;;;;;1.73;1.38;;;;;;;8.17;95.64;99438.69;5077732;28;20051;-77
2020/12/15 06:52:07;;;;;;;3.33;1.30;;;;;;;8.28;95.33;99457.47;5077801;28;20052;-76
2020/12/15 06:54:37;;;;;;;1.95;1.40;;;;;;;8.27;95.27;99450.47;5077583;28;20052;-76
2020/12/15 06:57:09;;;;;;;4.82;1.20;;;;;;;8.25;95.27;99448.84;5077184;28;20045;-75
2020/12/15 06:59:40;;;;;;;;;;;;;;;8.29;95.37;99453.88;5077169;28;20421;-77
2020/12/15 07:02:12;;;;;;;1.77;1.08;;;;;;;8.26;95.23;99451.41;5057456;28;20237;-76
2020/12/15 07:04:42;;;;;;;5.07;1.20;;;;;;;8.20;94.96;99434.97;5057134;28;20045;-76
2020/12/15 07:07:11;;;;;;;3.05;1.15;;;;;;;8.02;95.07;99413.94;5056565;28;20115;-80
2020/12/15 07:09:45;;;;;;;2.42;1.00;;;;;;;8.20;95.31;99446.47;5057241;28;20053;-73
2020/12/15 07:12:16;;;;;;;1.00;0.90;;;;;;;8.15;95.47;99435.28;5056691;28;20053;-73
2020/12/15 07:14:50;;;;;;;2.22;1.00;;;;;;;8.19;94.97;99442.13;5056097;28;20053;-74
2020/12/15 07:17:17;;;;;;;2.90;1.23;;;;;;;8.16;95.24;99458.25;5055616;28;20057;-74
2020/12/15 07:19:44;;;;;;;2.42;1.17;;;;;;;8.11;94.93;99441.72;5055385;28;20053;-73
2020/12/15 07:22:10;;;;;;;2.35;1.10;;;;;;;8.19;94.90;99465.19;5055662;28;20048;-75
2020/12/15 07:24:39;;;;;;;1.55;1.00;;;;;;;8.18;95.32;99447.53;5069036;28;20044;-75
2020/12/15 07:27:06;;;;;;;0.85;0.82;;;;;;;8.20;94.97;99453.59;5076043;28;20095;-76
2020/12/15 07:29:32;;;;;;;1.42;1.00;;;;;;;8.24;94.43;99474.56;5076449;28;20054;-74
2020/12/15 07:31:59;;;;;;;2.63;1.00;;;;;;;8.18;94.75;99467.00;5076281;28;20080;-73
2020/12/15 07:34:25;;;;;;;3.65;0.90;;;;;;;8.17;94.84;99472.41;5076322;28;20052;-75
2020/12/15 07:36:52;;;;;;;1.02;0.93;;;;;;;8.13;95.12;99474.41;5076491;28;20044;-73
2020/12/15 07:39:18;;;;;;;1.75;0.90;;;;;;;8.19;95.14;99482.00;5075461;28;20059;-75
2020/12/15 07:41:55;;;;;;;2.58;0.90;;;;;;;8.21;94.95;99477.44;5075153;28;20052;-73
2020/12/15 07:44:21;;;;;;;1.67;0.80;;;;;;;8.18;95.33;99474.09;5072585;28;20049;-73
2020/12/15 07:46:48;;;;;;;5.47;0.93;;;;;;;8.17;94.95;99477.72;5073000;28;20052;-74
2020/12/15 07:49:15;;;;;;;2.30;0.70;;;;;;;8.19;94.89;99486.44;5073814;28;20446;-75
2020/12/15 07:51:42;;;;;;;3.67;1.25;;;;;;;8.21;95.61;99482.75;5074746;28;20362;-74
2020/12/15 07:54:09;;;;;;;3.17;0.82;;;;;;;8.14;95.50;99482.28;5075074;28;20319;-75
2020/12/15 07:56:35;;;;;;;1.40;0.70;;;;;;;8.29;94.95;99506.22;5076086;28;20052;-73
2020/12/15 07:59:03;;;;;;;1.45;0.80;;;;;;;8.18;94.58;99477.63;5072130;28;20040;-75
2020/12/15 08:01:31;;;;;;;2.97;0.98;;;;;;;8.27;94.72;99497.44;5076178;28;20082;-74
2020/12/15 08:04:00;;;;;;;2.95;0.95;;;;;;;8.28;95.02;99500.00;5076080;28;20382;-74
2020/12/15 08:06:30;;;;;;;1.95;0.82;;;;;;;8.23;95.07;99474.69;5075347;28;20079;-74
2020/12/15 08:08:58;;;;;;;1.75;0.80;;;;;;;8.35;94.47;99495.19;5074771;28;20056;-73
2020/12/15 08:11:25;;;;;;;2.05;0.65;;;;;;;8.29;94.43;99485.78;5075328;28;20052;-72
2020/12/15 08:13:51;;;;;;;1.73;0.77;;;;;;;8.37;94.16;99492.41;5075094;28;20109;-73
2020/12/15 08:16:18;;;;;;;2.90;0.80;;;;;;;8.34;94.04;99487.31;5074560;28;20062;-73
2020/12/15 08:18:45;;;;;;;1.80;0.80;;;;;;;8.42;93.43;99506.28;5075760;28;20458;-73
2020/12/15 08:21:24;;;;;;;2.33;0.60;;;;;;;8.42;93.54;99500.97;5075892;28;20053;-73
2020/12/15 08:23:54;;;;;;;2.25;0.80;;;;;;;8.40;93.89;99508.19;5071513;28;20060;-74
2020/12/15 08:26:21;;;;;;;2.00;0.80;;;;;;;8.38;93.67;99516.25;5075153;28;20083;-73
2020/12/15 08:28:47;;;;;;;1.35;0.70;;;;;;;8.35;94.23;99512.94;5074825;28;20060;-74
2020/12/15 08:31:14;;;;;;;1.65;0.90;;;;;;;8.39;94.07;99525.09;5074402;28;20049;-75
2020/12/15 08:33:40;;;;;;;0.80;0.70;;;;;;;8.36;94.12;99512.84;5074606;28;20048;-74
2020/12/15 08:36:11;;;;;;;1.23;0.80;;;;;;;8.47;93.30;99524.59;5075768;28;20052;-74
2020/12/15 08:38:43;;;;;;;0.88;0.65;;;;;;;8.36;94.16;99511.97;5058124;28;20083;-73
2020/12/15 08:41:14;;;;;;;1.17;0.70;;;;;;;8.38;94.35;99531.34;5075308;28;20041;-75
2020/12/15 08:43:46;;;;;;;0.88;0.73;;;;;;;8.34;94.17;99520.03;5075547;28;20056;-76
2020/12/15 08:46:14;;;;;;;3.05;0.85;;;;;;;8.32;94.09;99526.44;5075413;28;20434;-74
2020/12/15 08:48:40;;;;;;;2.60;0.98;;;;;;;8.39;94.27;99530.41;5074274;28;20362;-74
2020/12/15 08:51:15;;;;;;;1.58;0.77;;;;;;;8.40;94.26;99532.97;5074912;28;20539;-74
2020/12/15 08:53:42;;;;;;;2.90;0.80;;;;;;;8.37;94.75;99524.31;5074749;28;20106;-74
2020/12/15 08:56:13;;;;;;;0.80;0.80;;;;;;;8.38;94.25;99526.88;5075193;28;20346;-73
2020/12/15 08:58:39;;;;;;;;;;;;;;;8.40;94.51;99545.41;5075863;28;20055;-74
2020/12/15 09:01:06;;;;;;;2.25;1.08;;;;;;;8.39;94.11;99544.56;5075263;28;19940;-73
2020/12/15 09:03:35;;;;;;;2.08;1.00;;;;;;;8.41;93.97;99541.81;5075478;28;20059;-74
2020/12/15 09:06:01;;;;;;;2.22;1.15;;;;;;;8.44;94.34;99541.59;5074501;28;20401;-71
2020/12/15 09:08:29;;;;;;;1.38;0.85;;;;;;;8.41;94.45;99549.78;5075284;28;20056;-72
2020/12/15 09:10:57;;;;;;;2.40;0.98;;;;;;;8.38;93.97;99537.53;5074444;28;20063;-72
2020/12/15 09:13:24;;;;;;;3.33;0.93;;;;;;;8.41;93.93;99547.97;5075413;28;20076;-73
2020/12/15 09:15:53;;;;;;;2.53;1.00;;;;;;;8.52;93.78;99558.00;5074142;28;20053;-73
2020/12/15 09:18:30;;;;;;;0.98;0.88;;;;;;;8.53;93.21;99562.34;5075222;28;20130;-73
2020/12/15 09:21:08;;;;;;;1.80;1.20;;;;;;;8.54;93.59;99557.88;5074410;28;20071;-74
2020/12/15 09:23:34;;;;;;;2.15;1.08;;;;;;;8.48;93.47;99567.06;5074672;28;20052;-74
2020/12/15 09:26:00;;;;;;;2.45;0.80;;;;;;;8.52;94.06;99568.63;5075118;28;20392;-74
2020/12/15 09:28:27;;;;;;;2.47;0.98;;;;;;;8.45;93.68;99572.59;5074741;28;20052;-73
2020/12/15 09:30:54;;;;;;;2.85;0.88;;;;;;;8.49;93.78;99576.75;5074875;28;20506;-74
2020/12/15 09:33:21;;;;;;;1.60;1.00;;;;;;;8.47;93.57;99567.16;5074840;28;20060;-75
2020/12/15 09:35:48;;;;;;;2.13;1.02;;;;;;;8.53;93.59;99569.47;5074768;28;20743;-76
2020/12/15 09:38:15;;;;;;;2.10;1.10;;;;;;;8.54;93.19;99569.38;5075212;28;20049;-75
2020/12/15 09:40:42;;;;;;;2.05;0.88;;;;;;;8.56;93.29;99564.81;5074854;28;20357;-75
2020/12/15 09:43:08;;;;;;;1.60;0.90;;;;;;;8.59;93.74;99568.22;5075005;28;20044;-74
2020/12/15 09:45:48;;;;;;;1.60;0.95;;;;;;;8.52;93.21;99560.66;5074775;28;20055;-75
2020/12/15 09:48:14;;;;;;;1.88;0.77;;;;;;;8.50;93.29;99570.47;5074669;28;20094;-73
2020/12/15 09:50:41;;;;;;;4.80;1.02;;;;;;;8.53;93.51;99572.13;5073958;28;20338;-75
2020/12/15 09:53:08;;;;;;;1.63;1.00;;;;;;;8.55;93.81;99565.78;5074079;28;20063;-76
2020/12/15 09:55:35;;;;;;;1.00;0.90;;;;;;;8.58;93.28;99562.06;5057473;28;20052;-71
2020/12/15 09:58:02;;;;;;;1.00;0.70;;;;;;;8.62;92.81;99568.91;5074717;28;20048;-75
2020/12/15 10:00:29;;;;;;;1.80;0.80;;;;;;;8.60;93.28;99557.50;5074452;28;20543;-74
2020/12/15 10:02:55;;;;;;;0.98;0.80;;;;;;;8.66;93.24;99558.94;5074584;28;20055;-71
2020/12/15 10:05:22;;;;;;;0.73;0.73;;;;;;;8.72;92.60;99557.69;5074888;28;20369;-72
2020/12/15 10:07:48;;;;;;;3.15;0.95;;;;;;;8.64;92.97;99567.00;5066742;28;20049;-71
2020/12/15 10:10:16;;;;;;;1.45;1.20;;;;;;;8.71;93.21;99564.78;5054081;28;20053;-73
2020/12/15 10:12:45;;;;;;;3.35;0.93;;;;;;;8.68;92.95;99567.66;5070584;28;20084;-74
2020/12/15 10:15:12;;;;;;;2.75;0.98;;;;;;;8.69;93.12;99551.63;5074344;28;20473;-75
2020/12/15 10:17:39;;;;;;;1.40;0.80;;;;;;;8.81;92.63;99578.38;5077595;28;20053;-75
2020/12/15 10:20:06;;;;;;;1.00;0.80;;;;;;;8.74;93.81;99571.72;5076984;28;20127;-72
2020/12/15 10:22:33;;;;;;;1.80;1.00;;;;;;;8.79;93.60;99585.63;5078054;28;20053;-72
2020/12/15 10:24:59;;;;;;;2.38;1.00;;;;;;;8.82;92.63;99601.38;5077873;28;20457;-74
2020/12/15 10:27:25;;;;;;;1.90;1.00;;;;;;;8.80;93.38;99597.97;5076851;28;20098;-73
2020/12/15 10:29:52;;;;;;;5.22;2.10;;;;;;;8.82;93.29;99599.56;5078012;28;20052;-74
2020/12/15 10:32:18;;;;;;;4.20;1.70;;;;;;;8.90;92.51;99603.56;5076841;28;20066;-76
2020/12/15 10:34:47;;;;;;;1.30;1.20;;;;;;;8.80;92.58;99605.94;5060209;28;20062;-75
2020/12/15 10:37:13;;;;;;;4.47;1.30;;;;;;;8.67;93.63;99589.91;5077754;28;20392;-74
2020/12/15 10:39:40;;;;;;;2.40;1.10;;;;;;;8.77;94.08;99609.66;5077771;28;20102;-74
2020/12/15 10:42:06;;;;;;;1.23;1.13;;;;;;;8.74;93.60;99596.56;5076928;28;20049;-73
2020/12/15 10:44:32;;;;;;;2.17;1.42;;;;;;;8.77;93.52;99592.84;5058779;28;20539;-73
2020/12/15 10:47:00;;;;;;;3.10;1.60;;;;;;;8.73;94.10;99600.16;5076968;28;20048;-72
2020/12/15 10:49:27;;;;;;;2.28;1.33;;;;;;;8.74;94.08;99606.31;5077214;28;20071;-74
2020/12/15 10:51:54;;;;;;;1.65;1.40;;;;;;;8.80;94.19;99592.63;5077269;28;20056;-74
2020/12/15 10:54:20;;;;;;;4.05;1.30;;;;;;;8.87;93.88;99585.13;5077478;28;20044;-75
2020/12/15 10:56:46;;;;;;;3.78;1.55;;;;;;;8.89;94.09;99608.00;5077431;28;20048;-73
2020/12/15 10:59:12;;;;;;;6.00;1.50;;;;;;;8.91;93.95;99606.13;5077411;28;20052;-75
2020/12/15 11:01:38;;;;;;;1.85;1.33;;;;;;;8.91;94.33;99618.56;5077666;28;20106;-73
2020/12/15 11:04:05;;;;;;;2.13;1.35;;;;;;;8.93;94.27;99622.00;5076465;28;20056;-74
2020/12/15 11:06:35;;;;;;;3.28;1.45;;;;;;;8.88;93.54;99627.59;5077474;28;20063;-75
2020/12/15 11:09:04;;;;;;;2.20;1.52;;;;;;;8.76;94.51;99613.25;5075791;28;20060;-79
2020/12/15 11:11:30;;;;;;;2.28;1.20;;;;;;;8.90;94.67;99631.03;5074414;28;20113;-78
2020/12/15 11:14:01;;;;;;;3.65;1.67;;;;;;;8.89;93.90;99625.81;5069127;28;20060;-76
2020/12/15 11:16:43;;;;;;;2.47;1.50;;;;;;;8.86;94.17;99615.34;5073663;28;20051;-79
2020/12/15 11:19:09;;;;;;;4.32;1.38;;;;;;;8.83;94.00;99611.94;5076081;28;20047;-77
2020/12/15 11:21:35;;;;;;;2.95;1.45;;;;;;;8.85;94.56;99618.94;5075752;28;20040;-74
2020/12/15 11:24:01;;;;;;;3.72;2.28;;;;;;;8.85;94.93;99625.16;5074652;28;20048;-76
2020/12/15 11:26:27;;;;;;;3.00;1.52;;;;;;;8.90;94.85;99632.84;5074726;28;20098;-76
2020/12/15 11:28:54;;;;;;;4.38;1.92;;;;;;;8.96;93.73;99635.97;5075477;28;20110;-74
2020/12/15 11:31:20;;;;;;;3.17;2.47;;;;;;;8.96;93.70;99638.66;5075097;28;20052;-74
2020/12/15 11:33:46;;;;;;;3.40;1.98;;;;;;;8.95;93.65;99642.22;5075966;28;20087;-77
2020/12/15 11:36:14;;;;;;;3.08;1.83;;;;;;;8.93;94.00;99643.31;5075759;28;20389;-78
2020/12/15 11:38:43;;;;;;;2.55;1.80;;;;;;;8.83;94.34;99646.53;5075581;28;20326;-75
2020/12/15 11:41:11;;;;;;;4.97;1.70;;;;;;;8.78;94.75;99645.09;5075075;28;20059;-74
2020/12/15 11:43:38;;;;;;;6.60;2.08;;;;;;;8.83;95.29;99651.84;5076719;28;20059;-73
2020/12/15 11:46:04;;;;;;;2.90;1.95;;;;;;;8.83;94.97;99653.66;5075174;28;20075;-75